Sahagun, Spain
Current Conditions -  °F | °C
As of 7:00 PM on Thursday 27 Nov 2014 (Local Time) from LELN Reporting Station
Broken Clouds Broken Clouds  
Wind Chill: 39°   Ceiling: 2500
Heat Index: 45°   Visibility: 6mi
Dew Point: 43°   Wind: 10mph
Humidity: 93%   Direction: 130°SE
Pressure: 29.26"   Gusts: NA
Location:  42.37°N, 5.03°W
Report Text: LELN 271800Z 13009KT 9999 SCT010 BKN025 07/06 Q0991
Loading
Personal Weather Stations






























Interactive Weather Map New forecast layout! Learn more

10-Day Weather Forecast

Advertisements
Track Severe Weather on mobile